Somerset, Texas
Current Conditions -  °F | °C
As of 9:58 PM on Friday 24 Oct 2014 (Local Time) from KSKF Reporting Station
Clear Clear  
Wind Chill: 71°   Ceiling: Unl
Heat Index: 71°   Visibility: 10mi
Dew Point: 59°   Wind: 1mph
Humidity: 65%   Direction: 130°SE
Pressure: 30.11"   Gusts: NA
Location:  29.23°N, 98.66°W
Report Text: KSKF 250258Z AUTO 13001KT 10SM CLR 22/15 A3011 RMK AO2 SLP191 T02160148 52014 $
Loading
Personal Weather Stations






























Interactive Weather Map New forecast layout! Learn more

10-Day Weather Forecast

Advertisements
Track Severe Weather on mobile